sensor_id;sensor_type;location;lat;lon;timestamp;pressure;altitude;pressure_sealevel;temperature;humidity
45467;BME280;31212;49.734;8.490;2022-12-05T09:26:28;100978.97;;;4.36;100.00
45467;BME280;31212;49.734;8.490;2022-12-05T09:28:56;100974.03;;;4.65;100.00
45467;BME280;31212;49.734;8.490;2022-12-05T09:31:25;100961.28;;;4.68;100.00
45467;BME280;31212;49.734;8.490;2022-12-05T09:33:53;100940.38;;;4.83;100.00
45467;BME280;31212;49.734;8.490;2022-12-05T09:36:21;100922.91;;;4.75;100.00
45467;BME280;31212;49.734;8.490;2022-12-05T09:38:49;100917.19;;;4.82;100.00
45467;BME280;31212;49.734;8.490;2022-12-05T09:41:29;100903.69;;;4.89;100.00
45467;BME280;31212;49.734;8.490;2022-12-05T09:44:20;100894.31;;;4.91;100.00
45467;BME280;31212;49.734;8.490;2022-12-05T09:46:52;100893.34;;;4.87;100.00
45467;BME280;31212;49.734;8.490;2022-12-05T09:49:21;100881.72;;;4.73;100.00
45467;BME280;31212;49.734;8.490;2022-12-05T09:51:49;100881.03;;;4.79;100.00
45467;BME280;31212;49.734;8.490;2022-12-05T09:54:17;100879.38;;;4.79;100.00
45467;BME280;31212;49.734;8.490;2022-12-05T09:56:48;100876.16;;;4.86;100.00
45467;BME280;31212;49.734;8.490;2022-12-05T09:59:16;100862.72;;;4.95;100.00
45467;BME280;31212;49.734;8.490;2022-12-05T10:01:50;100863.31;;;4.86;100.00
45467;BME280;31212;49.734;8.490;2022-12-05T10:04:50;100849.72;;;4.91;100.00
45467;BME280;31212;49.734;8.490;2022-12-05T10:07:29;100855.28;;;4.77;100.00
45467;BME280;31212;49.734;8.490;2022-12-05T10:10:13;100847.50;;;4.76;99.57
45467;BME280;31212;49.734;8.490;2022-12-05T10:12:55;100843.34;;;4.79;99.53
45467;BME280;31212;49.734;8.490;2022-12-05T10:15:29;100844.00;;;4.74;99.14
45467;BME280;31212;49.734;8.490;2022-12-05T10:17:58;100848.50;;;4.79;98.90
45467;BME280;31212;49.734;8.490;2022-12-05T10:20:30;100834.66;;;4.76;98.89
45467;BME280;31212;49.734;8.490;2022-12-05T10:23:00;100837.00;;;4.69;98.53
45467;BME280;31212;49.734;8.490;2022-12-05T10:25:31;100834.47;;;4.71;98.38
45467;BME280;31212;49.734;8.490;2022-12-05T10:28:02;100828.78;;;4.80;98.27
45467;BME280;31212;49.734;8.490;2022-12-05T10:30:32;100830.69;;;4.85;97.71
45467;BME280;31212;49.734;8.490;2022-12-05T10:33:01;100832.00;;;5.00;97.69
45467;BME280;31212;49.734;8.490;2022-12-05T10:35:32;100830.50;;;5.07;97.83
45467;BME280;31212;49.734;8.490;2022-12-05T10:38:03;100826.22;;;5.07;96.85
45467;BME280;31212;49.734;8.490;2022-12-05T10:40:33;100820.34;;;5.11;96.86
45467;BME280;31212;49.734;8.490;2022-12-05T10:43:02;100821.28;;;5.13;96.66
45467;BME280;31212;49.734;8.490;2022-12-05T10:45:29;100814.19;;;5.06;96.06
45467;BME280;31212;49.734;8.490;2022-12-05T10:47:57;100812.03;;;5.18;95.47
45467;BME280;31212;49.734;8.490;2022-12-05T10:50:28;100811.19;;;5.19;95.90
45467;BME280;31212;49.734;8.490;2022-12-05T10:52:56;100807.81;;;5.22;95.47
45467;BME280;31212;49.734;8.490;2022-12-05T10:55:28;100805.94;;;5.16;95.25
45467;BME280;31212;49.734;8.490;2022-12-05T10:58:10;100801.66;;;5.17;95.32
45467;BME280;31212;49.734;8.490;2022-12-05T11:00:38;100792.34;;;5.20;95.16
45467;BME280;31212;49.734;8.490;2022-12-05T11:03:21;100790.53;;;5.18;94.46
45467;BME280;31212;49.734;8.490;2022-12-05T11:05:49;100789.16;;;5.28;94.34
45467;BME280;31212;49.734;8.490;2022-12-05T11:08:21;100779.56;;;5.23;94.61
45467;BME280;31212;49.734;8.490;2022-12-05T11:10:48;100781.44;;;5.28;93.94
45467;BME280;31212;49.734;8.490;2022-12-05T11:13:25;100778.00;;;5.29;94.39
45467;BME280;31212;49.734;8.490;2022-12-05T11:15:51;100791.03;;;5.33;94.20
45467;BME280;31212;49.734;8.490;2022-12-05T11:18:26;100778.16;;;5.33;93.80
45467;BME280;31212;49.734;8.490;2022-12-05T11:20:54;100778.28;;;5.38;94.17
45467;BME280;31212;49.734;8.490;2022-12-05T11:23:24;100782.69;;;5.42;94.03
45467;BME280;31212;49.734;8.490;2022-12-05T11:25:52;100775.75;;;5.39;93.68
45467;BME280;31212;49.734;8.490;2022-12-05T11:28:30;100773.94;;;5.37;93.55
45467;BME280;31212;49.734;8.490;2022-12-05T11:31:00;100771.06;;;5.26;93.04
45467;BME280;31212;49.734;8.490;2022-12-05T11:33:28;100774.53;;;5.27;93.47
45467;BME280;31212;49.734;8.490;2022-12-05T11:36:00;100777.78;;;5.21;93.25
45467;BME280;31212;49.734;8.490;2022-12-05T11:38:29;100772.97;;;5.32;93.10
45467;BME280;31212;49.734;8.490;2022-12-05T11:41:08;100776.19;;;5.26;93.56
45467;BME280;31212;49.734;8.490;2022-12-05T11:44:02;100771.22;;;5.31;93.44
45467;BME280;31212;49.734;8.490;2022-12-05T11:46:39;100777.22;;;5.31;93.27
45467;BME280;31212;49.734;8.490;2022-12-05T11:49:30;100773.06;;;5.35;92.93
45467;BME280;31212;49.734;8.490;2022-12-05T11:52:06;100772.31;;;5.39;93.08
45467;BME280;31212;49.734;8.490;2022-12-05T11:54:49;100779.97;;;5.36;92.87
45467;BME280;31212;49.734;8.490;2022-12-05T11:57:27;100778.19;;;5.35;93.08
45467;BME280;31212;49.734;8.490;2022-12-05T12:00:18;100789.31;;;5.34;93.46
45467;BME280;31212;49.734;8.490;2022-12-05T12:03:02;100785.09;;;5.36;93.47
45467;BME280;31212;49.734;8.490;2022-12-05T12:05:43;100775.06;;;5.45;92.91
45467;BME280;31212;49.734;8.490;2022-12-05T12:08:19;100778.47;;;5.44;92.62
